Time;durP1;ratioP1;P1;durP2;ratioP2;P2;SDS_P1;SDS_P2;PMS_P1;PMS_P2;Temp;Humidity;BMP_temperature;BMP_pressure;BME280_temperature;BME280_humidity;BME280_pressure;Samples;Min_cycle;Max_cycle;Signal;HPM_P1;HPM_P2
2023/05/30 00:01:06;;;;;;;6.13;5.50;;;;;;;18.80;99.56;99273.97;5052099;28;20196;-67
2023/05/30 00:03:33;;;;;;;5.43;5.03;;;;;;;18.66;100.00;99267.38;5036269;28;20206;-67
2023/05/30 00:06:00;;;;;;;6.03;5.57;;;;;;;18.64;100.00;99267.63;5032016;28;20243;-67
2023/05/30 00:08:27;;;;;;;8.57;5.47;;;;;;;18.63;100.00;99265.19;5032230;28;20193;-67
2023/05/30 00:10:53;;;;;;;7.33;4.70;;;;;;;18.67;100.00;99266.28;5031778;28;20197;-67
2023/05/30 00:13:20;;;;;;;5.83;5.27;;;;;;;18.66;100.00;99270.06;5044967;28;20266;-66
2023/05/30 00:15:48;;;;;;;6.00;5.50;;;;;;;18.62;100.00;99274.31;5052032;28;20264;-66
2023/05/30 00:18:15;;;;;;;5.43;4.73;;;;;;;18.57;100.00;99272.38;5051992;28;20194;-66
2023/05/30 00:20:44;;;;;;;5.33;4.87;;;;;;;18.59;100.00;99269.44;5052115;28;20200;-65
2023/05/30 00:23:11;;;;;;;6.10;4.77;;;;;;;18.59;100.00;99264.84;5039774;28;20266;-65
2023/05/30 00:25:37;;;;;;;4.97;4.63;;;;;;;18.56;100.00;99269.94;5031943;28;20275;-67
2023/05/30 00:28:07;;;;;;;5.87;4.43;;;;;;;18.54;100.00;99259.41;5032126;28;20247;-67
2023/05/30 00:30:33;;;;;;;6.77;4.50;;;;;;;18.51;100.00;99264.50;5031601;28;20255;-67
2023/05/30 00:33:02;;;;;;;4.80;4.23;;;;;;;18.48;100.00;99260.44;5041497;28;20251;-68
2023/05/30 00:35:29;;;;;;;6.27;4.50;;;;;;;18.49;100.00;99269.31;5051488;28;20228;-67
2023/05/30 00:37:55;;;;;;;5.27;4.87;;;;;;;18.45;100.00;99252.03;5051607;28;20650;-68
2023/05/30 00:40:22;;;;;;;4.93;4.63;;;;;;;18.51;100.00;99256.44;5049310;28;20288;-68
2023/05/30 00:42:49;;;;;;;5.80;5.30;;;;;;;18.49;100.00;99255.84;5031511;28;20754;-68
2023/05/30 00:45:15;;;;;;;4.73;4.43;;;;;;;18.45;100.00;99260.13;5032773;28;20216;-67
2023/05/30 00:47:43;;;;;;;6.50;5.10;;;;;;;18.45;100.00;99257.44;5031560;28;20624;-66
2023/05/30 00:50:11;;;;;;;4.87;4.47;;;;;;;18.56;100.00;99259.19;5031696;28;20257;-69
2023/05/30 00:52:38;;;;;;;7.53;5.27;;;;;;;18.65;100.00;99257.66;5031161;28;20251;-65
2023/05/30 00:55:05;;;;;;;6.87;4.57;;;;;;;18.67;100.00;99263.59;5031350;28;20196;-66
2023/05/30 00:57:33;;;;;;;4.87;4.57;;;;;;;18.67;100.00;99260.91;5031684;28;20262;-66
2023/05/30 01:00:01;;;;;;;4.87;4.40;;;;;;;18.66;100.00;99262.00;5031295;28;20257;-67
2023/05/30 01:02:28;;;;;;;5.53;4.40;;;;;;;18.65;100.00;99273.78;5046725;28;20660;-66
2023/05/30 01:04:55;;;;;;;4.60;4.20;;;;;;;18.65;100.00;99263.84;5040993;28;20228;-67
2023/05/30 01:07:23;;;;;;;4.67;4.27;;;;;;;18.64;100.00;99270.31;5033849;28;20247;-67
2023/05/30 01:09:52;;;;;;;6.10;4.27;;;;;;;18.65;100.00;99269.22;5035352;28;20244;-67
2023/05/30 01:12:28;;;;;;;5.00;4.50;;;;;;;18.57;100.00;99266.16;5035401;28;20195;-67
2023/05/30 01:15:03;;;;;;;4.13;3.93;;;;;;;18.52;100.00;99263.44;5035322;28;20218;-67
2023/05/30 01:17:42;;;;;;;4.90;4.50;;;;;;;18.52;100.00;99263.44;5035374;28;20247;-66
2023/05/30 01:20:12;;;;;;;5.13;4.43;;;;;;;18.55;100.00;99263.75;5035137;28;20191;-66
2023/05/30 01:23:05;;;;;;;7.40;4.37;;;;;;;18.56;100.00;99270.75;5051789;28;20199;-66
2023/05/30 01:25:46;;;;;;;5.23;4.83;;;;;;;18.51;100.00;99272.56;5032011;28;20229;-66
2023/05/30 01:28:21;;;;;;;5.13;4.80;;;;;;;18.58;100.00;99267.81;5054729;28;20622;-66
2023/05/30 01:30:51;;;;;;;5.77;4.73;;;;;;;18.50;100.00;99270.97;5053447;28;20211;-66
2023/05/30 01:33:19;;;;;;;6.57;4.80;;;;;;;18.50;100.00;99265.56;5054640;28;20177;-66
2023/05/30 01:35:46;;;;;;;5.07;4.27;;;;;;;18.46;100.00;99267.16;5054482;28;20238;-66
2023/05/30 01:38:14;;;;;;;5.37;4.87;;;;;;;18.39;100.00;99263.81;5054825;28;20201;-66
2023/05/30 01:40:42;;;;;;;6.90;5.07;;;;;;;18.35;100.00;99262.72;5053192;28;20204;-67
2023/05/30 01:43:23;;;;;;;7.67;5.20;;;;;;;18.28;100.00;99256.66;5034622;28;20191;-67
2023/05/30 01:45:56;;;;;;;4.87;4.57;;;;;;;18.22;100.00;99263.06;5034301;28;20256;-67
2023/05/30 01:48:31;;;;;;;5.63;4.73;;;;;;;18.28;100.00;99259.34;5035027;28;20241;-67
2023/05/30 01:51:00;;;;;;;6.37;5.47;;;;;;;18.29;100.00;99255.63;5036248;28;20620;-68
2023/05/30 01:53:37;;;;;;;5.03;4.70;;;;;;;18.30;100.00;99254.56;5054586;28;20281;-67
2023/05/30 01:56:06;;;;;;;6.33;4.53;;;;;;;18.41;100.00;99256.31;5054660;28;20189;-67
2023/05/30 01:58:37;;;;;;;4.67;4.37;;;;;;;18.50;100.00;99260.19;5054585;28;20188;-67
2023/05/30 02:01:07;;;;;;;4.93;3.93;;;;;;;18.63;100.00;99259.78;5050331;28;20198;-68
2023/05/30 02:03:34;;;;;;;5.67;5.23;;;;;;;18.67;100.00;99261.72;5034690;28;20643;-67
2023/05/30 02:06:01;;;;;;;5.70;5.00;;;;;;;18.66;100.00;99260.09;5034088;28;20221;-67
2023/05/30 02:08:28;;;;;;;4.87;4.40;;;;;;;18.69;100.00;99258.78;5034343;28;20285;-67
2023/05/30 02:10:54;;;;;;;4.80;4.50;;;;;;;18.74;100.00;99265.00;5034488;28;20235;-67
2023/05/30 02:13:21;;;;;;;4.80;4.50;;;;;;;18.78;100.00;99270.72;5033865;28;20239;-67
2023/05/30 02:15:49;;;;;;;4.97;4.57;;;;;;;18.86;100.00;99259.47;5034097;28;20197;-67
2023/05/30 02:18:17;;;;;;;4.67;4.00;;;;;;;18.94;99.92;99262.53;5032901;28;20255;-67
2023/05/30 02:20:43;;;;;;;4.40;4.10;;;;;;;19.07;99.35;99264.78;5033886;28;20573;-71
2023/05/30 02:23:10;;;;;;;6.30;4.37;;;;;;;19.20;98.42;99260.88;5033717;28;20630;-66
2023/05/30 02:25:37;;;;;;;4.93;3.57;;;;;;;19.11;97.09;99257.03;5033605;28;20644;-66
2023/05/30 02:28:04;;;;;;;5.60;3.90;;;;;;;19.06;98.30;99251.59;5033404;28;20274;-66
2023/05/30 02:30:30;;;;;;;5.97;3.83;;;;;;;18.93;97.58;99254.69;5033637;28;20250;-66
2023/05/30 02:32:58;;;;;;;6.30;3.90;;;;;;;18.82;98.09;99258.34;5050762;28;20242;-67
2023/05/30 02:35:25;;;;;;;4.07;3.67;;;;;;;18.77;98.26;99250.25;5053415;28;20591;-66
2023/05/30 02:37:52;;;;;;;4.03;3.60;;;;;;;18.72;97.62;99258.28;5053636;28;20583;-67
2023/05/30 02:40:19;;;;;;;5.63;3.53;;;;;;;18.71;97.50;99270.09;5053299;28;20626;-66
2023/05/30 02:42:46;;;;;;;5.10;3.57;;;;;;;18.64;97.70;99258.72;5036975;28;20193;-67
2023/05/30 02:45:13;;;;;;;4.80;3.33;;;;;;;18.61;97.68;99261.91;5033099;28;20694;-66
2023/05/30 02:47:40;;;;;;;5.40;3.47;;;;;;;18.66;97.67;99264.69;5033519;28;20195;-66
2023/05/30 02:50:09;;;;;;;4.30;3.30;;;;;;;18.73;97.63;99268.78;5040797;28;20627;-67
2023/05/30 02:52:36;;;;;;;4.30;3.47;;;;;;;18.86;98.25;99259.47;5053059;28;20616;-67
2023/05/30 02:55:03;;;;;;;3.50;3.30;;;;;;;19.04;98.22;99275.28;5053015;28;20679;-67
2023/05/30 02:57:30;;;;;;;4.10;2.97;;;;;;;19.07;96.15;99272.06;5052867;28;20684;-67
2023/05/30 02:59:57;;;;;;;3.77;3.43;;;;;;;19.00;95.60;99277.66;5033735;28;20255;-66
2023/05/30 03:02:23;;;;;;;3.70;3.50;;;;;;;18.98;95.95;99273.59;5033310;28;20201;-67
2023/05/30 03:04:50;;;;;;;4.13;3.00;;;;;;;18.90;95.62;99274.03;5032792;28;20276;-66
2023/05/30 03:07:18;;;;;;;4.20;3.53;;;;;;;18.94;96.00;99277.84;5032740;28;20199;-67
2023/05/30 03:09:45;;;;;;;3.83;3.57;;;;;;;19.04;96.91;99280.66;5049252;28;20274;-66
2023/05/30 03:12:12;;;;;;;4.43;3.30;;;;;;;19.12;95.09;99285.56;5052849;28;20252;-66
2023/05/30 03:14:39;;;;;;;3.10;2.90;;;;;;;19.02;94.49;99290.84;5053039;28;20275;-66
2023/05/30 03:17:06;;;;;;;3.10;2.80;;;;;;;19.09;94.82;99291.47;5052764;28;20564;-66
2023/05/30 03:19:33;;;;;;;3.30;2.80;;;;;;;19.15;94.20;99293.16;5037270;28;20252;-65
2023/05/30 03:22:00;;;;;;;4.97;2.83;;;;;;;19.23;93.33;99292.66;5032848;28;20299;-66
2023/05/30 03:24:29;;;;;;;5.20;3.20;;;;;;;19.12;93.27;99288.28;5033093;28;20230;-65
2023/05/30 03:26:55;;;;;;;5.97;3.50;;;;;;;18.96;93.46;99294.56;5032537;28;20239;-65
2023/05/30 03:29:22;;;;;;;7.20;3.83;;;;;;;18.87;94.11;99290.72;5045461;28;20195;-64
2023/05/30 03:31:49;;;;;;;2.97;2.63;;;;;;;18.74;95.61;99288.44;5052607;28;20199;-73
2023/05/30 03:34:16;;;;;;;5.37;3.13;;;;;;;18.84;99.00;99283.97;5052677;28;20228;-72
2023/05/30 03:36:43;;;;;;;8.37;3.27;;;;;;;19.02;96.37;99290.84;5052864;28;20316;-72
2023/05/30 03:39:09;;;;;;;4.60;3.07;;;;;;;19.25;96.58;99294.06;5051187;28;20256;-68
2023/05/30 03:41:39;;;;;;;5.07;3.13;;;;;;;19.53;92.96;99303.72;5052172;28;20245;-74
2023/05/30 03:44:06;;;;;;;6.57;2.90;;;;;;;19.60;92.73;99296.25;5049239;28;20203;-71
2023/05/30 03:46:32;;;;;;;9.40;3.67;;;;;;;19.74;91.42;99300.91;5052001;28;20223;-68
2023/05/30 03:48:59;;;;;;;4.37;3.03;;;;;;;19.78;89.41;99307.41;5052251;28;20196;-72
2023/05/30 03:51:26;;;;;;;3.40;2.57;;;;;;;19.80;92.09;99310.66;5052337;28;20228;-68
2023/05/30 03:53:53;;;;;;;8.23;3.57;;;;;;;19.99;91.93;99316.44;5035990;28;20193;-77
2023/05/30 03:56:19;;;;;;;26.40;4.33;;;;;;;20.01;88.03;99325.09;5031828;28;20267;-73
2023/05/30 03:58:47;;;;;;;5.33;3.60;;;;;;;19.93;87.31;99330.97;5031995;28;20208;-72
2023/05/30 04:01:14;;;;;;;7.40;3.20;;;;;;;19.95;89.04;99329.63;5032011;28;20200;-73
2023/05/30 04:03:43;;;;;;;8.27;3.73;;;;;;;19.84;87.37;99332.50;5031011;28;20197;-71
2023/05/30 04:06:10;;;;;;;8.87;3.33;;;;;;;19.70;88.29;99332.16;5011560;28;20764;-74
2023/05/30 04:08:37;;;;;;;8.70;3.80;;;;;;;19.65;88.60;99334.00;5012382;28;20194;-73
2023/05/30 04:11:04;;;;;;;10.93;3.50;;;;;;;19.56;89.93;99335.56;5023729;28;20220;-74
2023/05/30 04:13:31;;;;;;;10.17;3.50;;;;;;;19.62;90.09;99340.72;5051707;28;20228;-72
2023/05/30 04:16:00;;;;;;;10.70;3.70;;;;;;;19.56;89.57;99330.16;5052008;28;20196;-73
2023/05/30 04:18:27;;;;;;;3.57;3.20;;;;;;;19.75;89.50;99347.53;5048315;28;20240;-69
2023/05/30 04:20:54;;;;;;;10.17;3.63;;;;;;;19.89;90.58;99346.03;5031542;28;20305;-72
2023/05/30 04:23:20;;;;;;;4.43;3.13;;;;;;;20.03;89.07;99347.19;5030201;28;20222;-68
2023/05/30 04:25:47;;;;;;;7.53;3.80;;;;;;;20.11;86.75;99346.75;5030236;28;20267;-75
2023/05/30 04:28:16;;;;;;;29.30;3.63;;;;;;;20.03;87.86;99336.41;5031066;28;20201;-74
2023/05/30 04:30:48;;;;;;;7.77;3.30;;;;;;;20.12;86.51;99342.97;5030430;28;20224;-74
2023/05/30 04:33:16;;;;;;;8.70;3.80;;;;;;;20.10;86.45;99342.44;5031606;28;20189;-71
2023/05/30 04:35:44;;;;;;;5.93;3.60;;;;;;;20.02;86.59;99340.19;5032051;28;20232;-73
2023/05/30 04:38:20;;;;;;;14.63;4.07;;;;;;;19.99;86.19;99354.19;5030708;28;20667;-68
2023/05/30 04:40:50;;;;;;;6.90;3.90;;;;;;;19.83;87.20;99363.22;5031714;28;20250;-67
2023/05/30 04:43:19;;;;;;;8.50;3.53;;;;;;;19.78;86.83;99360.50;5034819;28;20221;-68
2023/05/30 04:45:47;;;;;;;6.03;3.43;;;;;;;19.67;87.35;99354.22;5034547;28;20587;-69
2023/05/30 04:48:16;;;;;;;7.20;3.33;;;;;;;19.63;87.64;99363.91;5034361;28;20667;-68
2023/05/30 04:50:46;;;;;;;16.07;4.47;;;;;;;19.61;88.01;99355.25;5033529;28;20228;-68
2023/05/30 04:53:13;;;;;;;10.47;3.83;;;;;;;19.56;88.60;99357.09;5033960;28;20212;-69
2023/05/30 04:55:41;;;;;;;9.67;4.20;;;;;;;19.50;88.43;99366.19;5033440;28;20204;-69
2023/05/30 04:58:07;;;;;;;16.30;4.57;;;;;;;19.51;89.28;99362.44;5031794;28;20201;-68
2023/05/30 05:00:36;;;;;;;9.00;3.30;;;;;;;19.44;88.68;99364.53;5032602;28;20247;-69
2023/05/30 05:03:03;;;;;;;6.20;3.23;;;;;;;19.38;88.95;99365.56;5032084;28;20199;-69
2023/05/30 05:05:31;;;;;;;5.33;3.17;;;;;;;19.38;89.42;99370.94;5031041;28;20213;-69
2023/05/30 05:07:58;;;;;;;11.93;4.23;;;;;;;19.27;89.86;99366.53;5031612;28;20252;-69
2023/05/30 05:10:24;;;;;;;13.60;4.77;;;;;;;19.22;90.61;99372.66;5032198;28;20201;-69
2023/05/30 05:12:51;;;;;;;8.67;3.73;;;;;;;19.22;90.86;99371.84;5033033;28;20197;-69
2023/05/30 05:15:18;;;;;;;5.47;3.60;;;;;;;19.23;91.47;99373.44;5033683;28;20186;-70
2023/05/30 05:17:44;;;;;;;7.43;3.73;;;;;;;19.23;91.27;99378.84;5033040;28;20192;-69
2023/05/30 05:20:12;;;;;;;15.80;4.80;;;;;;;19.22;91.83;99377.22;5033452;28;20328;-69
2023/05/30 05:22:40;;;;;;;5.10;3.00;;;;;;;19.39;91.95;99380.63;5032945;28;20203;-71
2023/05/30 05:25:08;;;;;;;9.63;4.27;;;;;;;19.44;90.48;99378.81;5033717;28;20738;-67
2023/05/30 05:27:35;;;;;;;5.60;3.90;;;;;;;19.47;90.39;99380.19;5032977;28;20201;-68
2023/05/30 05:30:01;;;;;;;12.57;4.70;;;;;;;19.45;89.94;99383.13;5032993;28;20194;-72
2023/05/30 05:32:28;;;;;;;11.97;4.33;;;;;;;19.41;90.67;99386.59;5033649;28;20260;-68
2023/05/30 05:34:55;;;;;;;11.80;5.40;;;;;;;19.51;90.85;99394.75;5032676;28;20193;-68
2023/05/30 05:37:21;;;;;;;9.03;4.30;;;;;;;19.46;90.48;99395.53;5033203;28;20187;-68
2023/05/30 05:39:49;;;;;;;8.87;5.03;;;;;;;19.35;90.65;99395.69;5032910;28;20750;-68
2023/05/30 05:42:16;;;;;;;16.20;4.90;;;;;;;19.41;91.60;99392.00;5031823;28;20255;-70
2023/05/30 05:44:43;;;;;;;18.30;5.20;;;;;;;19.40;91.07;99384.97;5032794;28;20220;-70
2023/05/30 05:47:09;;;;;;;37.73;5.80;;;;;;;19.45;92.21;99393.09;5032266;28;20271;-70
2023/05/30 05:49:36;;;;;;;19.57;5.77;;;;;;;19.57;91.39;99396.44;5033089;28;20200;-71
2023/05/30 05:52:03;;;;;;;28.57;5.83;;;;;;;19.57;90.82;99396.44;5033658;28;20194;-69
2023/05/30 05:54:29;;;;;;;9.70;4.50;;;;;;;19.43;90.51;99382.59;5033264;28;20197;-70
2023/05/30 05:56:57;;;;;;;32.73;6.10;;;;;;;19.52;90.89;99394.50;5033179;28;20369;-69
2023/05/30 05:59:24;;;;;;;9.07;4.77;;;;;;;19.57;90.72;99396.44;5033498;28;20206;-70
2023/05/30 06:01:52;;;;;;;18.63;5.93;;;;;;;19.55;90.70;99394.00;5033160;28;20287;-70
2023/05/30 06:04:19;;;;;;;13.90;4.93;;;;;;;19.56;90.45;99405.59;5033371;28;20197;-69
2023/05/30 06:06:46;;;;;;;7.60;4.70;;;;;;;19.47;90.86;99394.47;5032800;28;20286;-68
2023/05/30 06:09:12;;;;;;;7.67;5.17;;;;;;;19.47;91.08;99390.94;5033292;28;20197;-68
2023/05/30 06:11:39;;;;;;;12.70;5.20;;;;;;;19.55;91.12;99387.78;5033066;28;20250;-68
2023/05/30 06:14:07;;;;;;;7.77;4.77;;;;;;;19.57;90.80;99404.53;5033394;28;20190;-69
2023/05/30 06:16:34;;;;;;;15.37;5.17;;;;;;;19.72;91.83;99401.94;5033048;28;20631;-70
2023/05/30 06:19:01;;;;;;;8.90;5.53;;;;;;;19.90;90.65;99407.75;5032093;28;20193;-71
2023/05/30 06:21:27;;;;;;;14.23;5.80;;;;;;;20.00;89.39;99407.84;5032672;28;20252;-69
2023/05/30 06:23:54;;;;;;;23.57;5.70;;;;;;;20.01;89.33;99414.88;5032725;28;20193;-69
2023/05/30 06:26:21;;;;;;;18.23;5.43;;;;;;;20.01;89.28;99416.78;5033325;28;20267;-69
2023/05/30 06:28:49;;;;;;;25.57;6.83;;;;;;;20.09;89.06;99410.91;5033058;28;20561;-69
2023/05/30 06:31:17;;;;;;;12.20;5.07;;;;;;;20.08;88.90;99414.63;5032676;28;20200;-68
2023/05/30 06:33:45;;;;;;;14.57;5.00;;;;;;;20.12;88.65;99419.31;5032288;28;20208;-70
2023/05/30 06:36:12;;;;;;;5.97;4.70;;;;;;;20.12;89.10;99415.78;5031848;28;20241;-69
2023/05/30 06:38:38;;;;;;;9.70;4.63;;;;;;;20.24;88.75;99419.94;5032214;28;20204;-69
2023/05/30 06:41:05;;;;;;;8.53;5.07;;;;;;;20.32;88.12;99421.31;5032054;28;20267;-69
2023/05/30 06:43:32;;;;;;;8.37;6.17;;;;;;;20.37;87.22;99416.75;5033212;28;20251;-69
2023/05/30 06:45:58;;;;;;;19.67;13.27;;;;;;;20.40;87.41;99418.94;5032243;28;20217;-69
2023/05/30 06:48:26;;;;;;;23.73;13.73;;;;;;;20.39;87.40;99422.69;5032761;28;20193;-71
2023/05/30 06:50:53;;;;;;;19.67;15.87;;;;;;;20.45;86.92;99418.16;5032894;28;20739;-69
2023/05/30 06:53:20;;;;;;;35.67;18.20;;;;;;;20.53;86.62;99423.88;5032587;28;20194;-71
2023/05/30 06:55:47;;;;;;;33.03;19.03;;;;;;;20.66;86.96;99427.97;5032083;28;20316;-70
2023/05/30 06:58:14;;;;;;;21.80;16.37;;;;;;;20.71;85.79;99428.03;5031805;28;20251;-72
2023/05/30 07:00:41;;;;;;;19.37;16.53;;;;;;;20.74;84.69;99427.47;5032397;28;20205;-71
2023/05/30 07:03:08;;;;;;;17.83;15.97;;;;;;;20.86;85.31;99433.47;5031937;28;20550;-69
2023/05/30 07:05:36;;;;;;;20.07;14.23;;;;;;;21.05;85.38;99437.38;5031998;28;20190;-70
2023/05/30 07:08:02;;;;;;;22.70;15.17;;;;;;;21.26;85.40;99436.34;5031646;28;20224;-70
2023/05/30 07:10:29;;;;;;;23.63;21.10;;;;;;;21.43;83.50;99445.03;5032084;28;20213;-69
2023/05/30 07:12:56;;;;;;;27.03;24.07;;;;;;;21.53;82.65;99447.78;5031693;28;20193;-69
2023/05/30 07:15:22;;;;;;;26.07;21.93;;;;;;;21.53;81.38;99446.94;5031712;28;20252;-71
2023/05/30 07:17:49;;;;;;;23.53;21.13;;;;;;;21.64;80.95;99462.91;5030838;28;20575;-70
2023/05/30 07:20:20;;;;;;;20.53;17.23;;;;;;;21.75;81.24;99461.88;5032026;28;20746;-69
2023/05/30 07:22:48;;;;;;;14.20;12.73;;;;;;;21.89;80.10;99460.25;5030728;28;20225;-69
2023/05/30 07:25:15;;;;;;;7.83;7.10;;;;;;;22.09;78.50;99471.09;5031548;28;20193;-70
2023/05/30 07:27:42;;;;;;;8.70;6.30;;;;;;;22.23;78.85;99466.75;5030629;28;20367;-70
2023/05/30 07:30:09;;;;;;;14.80;6.70;;;;;;;22.39;76.81;99476.50;5031625;28;20255;-71
2023/05/30 07:32:36;;;;;;;8.47;5.20;;;;;;;22.48;77.18;99472.19;5030828;28;20197;-71
2023/05/30 07:35:03;;;;;;;10.27;4.80;;;;;;;22.57;76.52;99475.13;5030976;28;20197;-71
2023/05/30 07:37:29;;;;;;;10.43;4.63;;;;;;;22.61;75.94;99476.19;5030935;28;20569;-70
2023/05/30 07:39:58;;;;;;;12.43;4.20;;;;;;;22.64;76.09;99487.31;5031415;28;20198;-71
2023/05/30 07:42:24;;;;;;;7.77;4.47;;;;;;;22.76;76.19;99478.88;5031840;28;20232;-71
2023/05/30 07:44:51;;;;;;;6.67;3.40;;;;;;;22.77;75.76;99478.59;5030113;28;20197;-70
2023/05/30 07:47:18;;;;;;;4.03;3.63;;;;;;;22.81;76.29;99485.09;5029904;28;20217;-70
2023/05/30 07:49:44;;;;;;;7.30;4.17;;;;;;;22.83;76.95;99479.41;5030892;28;20196;-70
2023/05/30 07:52:11;;;;;;;6.53;3.93;;;;;;;22.83;76.88;99482.13;5030031;28;20198;-70
2023/05/30 07:54:38;;;;;;;6.27;3.87;;;;;;;22.82;75.25;99485.91;5030804;28;20241;-70
2023/05/30 07:57:06;;;;;;;5.83;3.70;;;;;;;22.85;75.49;99480.75;5030489;28;20198;-71
2023/05/30 07:59:33;;;;;;;6.67;3.23;;;;;;;22.89;72.99;99495.38;5030973;28;20216;-70
2023/05/30 08:02:00;;;;;;;62.07;6.47;;;;;;;22.91;73.78;99495.88;5030574;28;20191;-71
2023/05/30 08:04:26;;;;;;;19.50;3.90;;;;;;;22.92;74.41;99497.53;5030535;28;20199;-67
2023/05/30 08:06:53;;;;;;;9.87;3.40;;;;;;;22.96;71.57;99504.03;5029266;28;20713;-68
2023/05/30 08:09:20;;;;;;;29.07;4.73;;;;;;;23.04;73.54;99495.31;5030284;28;20616;-68
2023/05/30 08:11:46;;;;;;;28.90;4.70;;;;;;;23.23;71.60;99503.69;5029521;28;20206;-68
2023/05/30 08:14:14;;;;;;;6.60;3.37;;;;;;;23.15;70.88;99498.81;5030153;28;20194;-68
2023/05/30 08:16:41;;;;;;;5.53;3.50;;;;;;;22.98;71.52;99498.31;5029684;28;20207;-68
2023/05/30 08:19:08;;;;;;;8.20;3.73;;;;;;;22.91;72.33;99493.19;5029992;28;20220;-67
2023/05/30 08:21:36;;;;;;;9.07;3.77;;;;;;;23.06;73.30;99490.44;5030490;28;20195;-67
2023/05/30 08:24:02;;;;;;;4.47;3.77;;;;;;;23.17;72.98;99494.72;5029845;28;20198;-69
2023/05/30 08:26:30;;;;;;;5.27;3.60;;;;;;;23.22;71.72;99497.44;5029043;28;20249;-69
2023/05/30 08:28:56;;;;;;;6.10;3.17;;;;;;;23.37;71.59;99505.50;5029379;28;20257;-69
2023/05/30 08:31:25;;;;;;;6.07;4.23;;;;;;;23.53;71.35;99498.09;5030245;28;20194;-70
2023/05/30 08:33:51;;;;;;;9.77;4.30;;;;;;;23.46;70.76;99489.47;5030555;28;20193;-69
2023/05/30 08:36:21;;;;;;;3.57;3.20;;;;;;;23.44;71.09;99500.56;5030645;28;20230;-68
2023/05/30 08:38:53;;;;;;;10.87;3.90;;;;;;;23.57;71.28;99489.09;5030334;28;20190;-68
2023/05/30 08:41:20;;;;;;;3.83;3.53;;;;;;;23.59;70.28;99500.50;5030529;28;20195;-67
2023/05/30 08:43:47;;;;;;;7.80;3.67;;;;;;;23.43;71.72;99488.13;5030011;28;20248;-69
2023/05/30 08:46:15;;;;;;;4.70;3.63;;;;;;;23.19;71.22;99492.53;5029107;28;20252;-68
2023/05/30 08:48:44;;;;;;;8.53;3.50;;;;;;;23.01;73.40;99485.03;5029958;28;20284;-67
2023/05/30 08:51:15;;;;;;;6.87;3.07;;;;;;;22.91;73.31;99487.75;5029359;28;20194;-69
2023/05/30 08:53:43;;;;;;;9.30;4.03;;;;;;;23.13;74.05;99492.84;5029921;28;20193;-68
2023/05/30 08:56:15;;;;;;;3.70;3.40;;;;;;;23.30;75.63;99483.31;5029012;28;20194;-68
2023/05/30 08:58:47;;;;;;;4.40;3.37;;;;;;;23.43;76.13;99487.28;5029753;28;20187;-69
2023/05/30 09:01:15;;;;;;;5.10;3.97;;;;;;;23.45;74.38;99491.38;5030625;28;20236;-67
2023/05/30 09:03:45;;;;;;;3.60;3.37;;;;;;;23.35;75.87;99483.28;5030465;28;20201;-68
2023/05/30 09:06:12;;;;;;;4.17;3.70;;;;;;;23.49;75.42;99491.63;5031162;28;20198;-68
2023/05/30 09:08:41;;;;;;;3.80;3.50;;;;;;;23.63;75.41;99490.72;5030209;28;20258;-68
2023/05/30 09:11:08;;;;;;;5.40;3.43;;;;;;;23.79;73.70;99492.25;5029493;28;20278;-68
2023/05/30 09:13:35;;;;;;;6.77;4.43;;;;;;;23.85;76.20;99485.69;5029645;28;20199;-68
2023/05/30 09:16:02;;;;;;;4.93;3.43;;;;;;;23.86;76.86;99490.03;5029301;28;20649;-70
2023/05/30 09:18:30;;;;;;;3.93;3.63;;;;;;;23.95;75.41;99488.38;5028960;28;20257;-68
2023/05/30 09:20:58;;;;;;;4.23;4.00;;;;;;;24.05;75.69;99487.47;5030063;28;20751;-68
2023/05/30 09:23:25;;;;;;;6.10;4.43;;;;;;;23.95;76.90;99480.22;5029501;28;20598;-69
2023/05/30 09:25:52;;;;;;;6.37;4.13;;;;;;;23.82;76.84;99491.69;5030162;28;20196;-67
2023/05/30 09:28:25;;;;;;;5.03;4.00;;;;;;;23.60;75.97;99488.56;5031462;28;20231;-68
2023/05/30 09:30:55;;;;;;;4.13;3.83;;;;;;;23.42;75.47;99483.78;5033155;28;20187;-68
2023/05/30 09:33:22;;;;;;;5.43;4.37;;;;;;;23.26;76.35;99476.81;5032960;28;20287;-67
2023/05/30 09:35:52;;;;;;;4.70;4.30;;;;;;;23.14;77.86;99481.72;5031960;28;20256;-67
2023/05/30 09:38:22;;;;;;;4.03;3.73;;;;;;;23.12;79.28;99470.34;5031816;28;20208;-68
2023/05/30 09:40:51;;;;;;;3.80;3.40;;;;;;;23.24;79.53;99473.56;5033336;28;20298;-69
2023/05/30 09:43:31;;;;;;;4.77;4.37;;;;;;;23.41;79.27;99471.34;5033349;28;20207;-68
2023/05/30 09:46:00;;;;;;;4.30;3.83;;;;;;;23.56;79.17;99471.22;5033738;28;20185;-66
2023/05/30 09:48:26;;;;;;;4.50;3.90;;;;;;;23.62;79.65;99461.97;5032525;28;20222;-69
2023/05/30 09:50:53;;;;;;;5.10;4.30;;;;;;;23.57;78.63;99461.19;5033126;28;20565;-70
2023/05/30 09:53:21;;;;;;;4.97;4.50;;;;;;;23.46;79.62;99454.22;5033798;28;20207;-67
2023/05/30 09:55:49;;;;;;;4.00;3.70;;;;;;;23.51;78.67;99462.31;5032446;28;20196;-70
2023/05/30 09:58:20;;;;;;;7.33;4.70;;;;;;;23.50;77.90;99466.13;5032358;28;20198;-68
2023/05/30 10:00:50;;;;;;;5.60;5.20;;;;;;;23.56;76.52;99471.22;5031978;28;20199;-68
2023/05/30 10:03:17;;;;;;;7.33;4.97;;;;;;;23.46;76.68;99455.03;5033107;28;20195;-68
2023/05/30 10:05:43;;;;;;;5.37;4.00;;;;;;;23.67;78.15;99467.38;5032555;28;20198;-68
2023/05/30 10:08:11;;;;;;;4.70;4.27;;;;;;;23.78;77.81;99465.38;5033030;28;20572;-68
2023/05/30 10:10:40;;;;;;;4.60;4.13;;;;;;;23.96;78.63;99449.28;5033158;28;20703;-69
2023/05/30 10:13:07;;;;;;;5.90;4.53;;;;;;;24.31;75.75;99476.13;5032130;28;20204;-69
2023/05/30 10:15:34;;;;;;;6.10;5.50;;;;;;;24.29;74.25;99469.34;5032653;28;20205;-69
2023/05/30 10:18:07;;;;;;;4.43;4.17;;;;;;;24.03;75.93;99474.19;5031155;28;20200;-69
2023/05/30 10:20:37;;;;;;;7.67;4.50;;;;;;;23.80;76.03;99466.72;5031070;28;20195;-68
2023/05/30 10:23:07;;;;;;;8.40;4.70;;;;;;;23.90;77.04;99461.25;5031506;28;20256;-68
2023/05/30 10:25:35;;;;;;;4.60;4.20;;;;;;;23.82;77.54;99452.88;5032941;28;20207;-68
2023/05/30 10:28:06;;;;;;;6.60;4.73;;;;;;;23.89;77.36;99459.59;5031106;28;20317;-68
2023/05/30 10:30:34;;;;;;;5.27;4.03;;;;;;;23.95;74.09;99469.38;5032254;28;20253;-68
2023/05/30 10:33:05;;;;;;;4.27;3.70;;;;;;;23.85;74.37;99463.97;5031640;28;20660;-67
2023/05/30 10:35:33;;;;;;;4.27;3.87;;;;;;;23.90;75.54;99460.41;5033229;28;20232;-67
2023/05/30 10:38:01;;;;;;;8.43;4.20;;;;;;;23.95;74.55;99466.66;5032703;28;20288;-68
2023/05/30 10:40:40;;;;;;;5.10;3.10;;;;;;;23.99;73.15;99465.00;5031328;28;20575;-69
2023/05/30 10:43:26;;;;;;;5.20;3.13;;;;;;;24.04;72.09;99466.84;5031796;28;20265;-68
2023/05/30 10:46:08;;;;;;;3.00;2.90;;;;;;;23.96;70.31;99470.16;5031923;28;20238;-72
2023/05/30 10:48:47;;;;;;;4.07;3.53;;;;;;;23.89;70.77;99470.44;5032355;28;20220;-68
2023/05/30 10:51:14;;;;;;;2.70;2.60;;;;;;;23.81;70.02;99468.34;5031055;28;20254;-68
2023/05/30 10:53:42;;;;;;;9.50;2.90;;;;;;;23.76;71.09;99462.94;5032497;28;20206;-68
2023/05/30 10:56:40;;;;;;;2.97;2.67;;;;;;;23.90;70.29;99465.84;5031526;28;20200;-68
2023/05/30 10:59:15;;;;;;;7.57;2.90;;;;;;;23.94;71.80;99458.78;5031809;28;20187;-68
2023/05/30 11:01:42;;;;;;;13.90;3.57;;;;;;;24.12;70.76;99456.19;5032496;28;20647;-68
2023/05/30 11:04:11;;;;;;;6.13;3.40;;;;;;;24.30;70.02;99460.91;5031042;28;20204;-70
2023/05/30 11:06:42;;;;;;;5.90;2.87;;;;;;;24.36;66.61;99465.22;5030869;28;20654;-69
2023/05/30 11:09:12;;;;;;;5.00;2.60;;;;;;;24.51;67.89;99462.31;5030650;28;20715;-68
2023/05/30 11:11:44;;;;;;;4.07;2.70;;;;;;;24.63;66.77;99460.06;5031463;28;20206;-68
2023/05/30 11:14:14;;;;;;;5.33;2.27;;;;;;;24.65;65.63;99457.88;5031784;28;20203;-70
2023/05/30 11:16:55;;;;;;;2.30;2.20;;;;;;;24.57;64.78;99458.47;5030692;28;20225;-68
2023/05/30 11:19:25;;;;;;;11.03;3.30;;;;;;;24.56;65.80;99451.44;5029562;28;20246;-70
2023/05/30 11:22:10;;;;;;;17.53;4.53;;;;;;;24.70;68.10;99438.78;5031894;28;20185;-70
2023/05/30 11:24:37;;;;;;;11.60;3.67;;;;;;;24.81;66.68;99440.31;5031529;28;20193;-69
2023/05/30 11:27:12;;;;;;;9.03;3.00;;;;;;;24.92;67.78;99430.91;5030432;28;20201;-69
2023/05/30 11:29:49;;;;;;;7.20;2.93;;;;;;;25.03;66.88;99437.03;5031091;28;20598;-71
2023/05/30 11:32:19;;;;;;;7.63;2.77;;;;;;;25.10;65.65;99433.97;5032213;28;20271;-68
2023/05/30 11:34:48;;;;;;;4.03;2.50;;;;;;;25.20;63.97;99437.38;5031181;28;20188;-68